sensor_id;sensor_type;location;lat;lon;timestamp;temperature;humidity
23289;DHT22;11813;50.834;4.280;2024-01-16T00:02:22;2.50;99.90
23289;DHT22;11813;50.834;4.280;2024-01-16T00:04:48;2.50;99.90
23289;DHT22;11813;50.834;4.280;2024-01-16T00:07:14;2.40;99.90
23289;DHT22;11813;50.834;4.280;2024-01-16T00:09:39;2.30;99.90
23289;DHT22;11813;50.834;4.280;2024-01-16T00:12:05;2.30;99.90
23289;DHT22;11813;50.834;4.280;2024-01-16T00:14:35;2.10;99.90
23289;DHT22;11813;50.834;4.280;2024-01-16T00:17:01;2.00;99.90
23289;DHT22;11813;50.834;4.280;2024-01-16T00:19:26;1.80;99.90
23289;DHT22;11813;50.834;4.280;2024-01-16T00:21:52;1.90;99.90
23289;DHT22;11813;50.834;4.280;2024-01-16T00:24:17;2.00;99.90
23289;DHT22;11813;50.834;4.280;2024-01-16T00:26:43;1.90;99.90
23289;DHT22;11813;50.834;4.280;2024-01-16T00:29:09;1.90;99.90
23289;DHT22;11813;50.834;4.280;2024-01-16T00:31:35;1.70;99.90
23289;DHT22;11813;50.834;4.280;2024-01-16T00:34:00;1.60;99.90
23289;DHT22;11813;50.834;4.280;2024-01-16T00:36:26;1.60;99.90
23289;DHT22;11813;50.834;4.280;2024-01-16T00:38:51;1.70;99.90
23289;DHT22;11813;50.834;4.280;2024-01-16T00:41:17;1.70;99.90
23289;DHT22;11813;50.834;4.280;2024-01-16T00:43:43;1.80;99.90
23289;DHT22;11813;50.834;4.280;2024-01-16T00:46:09;1.60;99.90
23289;DHT22;11813;50.834;4.280;2024-01-16T00:48:34;1.50;99.90
23289;DHT22;11813;50.834;4.280;2024-01-16T00:51:00;1.40;99.90
23289;DHT22;11813;50.834;4.280;2024-01-16T00:53:28;1.50;99.90
23289;DHT22;11813;50.834;4.280;2024-01-16T00:55:54;1.50;99.90
23289;DHT22;11813;50.834;4.280;2024-01-16T00:58:23;1.40;99.90
23289;DHT22;11813;50.834;4.280;2024-01-16T01:00:49;1.30;99.90
23289;DHT22;11813;50.834;4.280;2024-01-16T01:03:14;1.40;99.90
23289;DHT22;11813;50.834;4.280;2024-01-16T01:05:40;1.40;99.90
23289;DHT22;11813;50.834;4.280;2024-01-16T01:08:06;1.30;99.90
23289;DHT22;11813;50.834;4.280;2024-01-16T01:10:32;1.20;99.90
23289;DHT22;11813;50.834;4.280;2024-01-16T01:12:58;1.20;99.90
23289;DHT22;11813;50.834;4.280;2024-01-16T01:15:24;1.20;99.90
23289;DHT22;11813;50.834;4.280;2024-01-16T01:17:50;1.20;99.90
23289;DHT22;11813;50.834;4.280;2024-01-16T01:20:18;1.20;99.90
23289;DHT22;11813;50.834;4.280;2024-01-16T01:22:45;1.30;99.90
23289;DHT22;11813;50.834;4.280;2024-01-16T01:25:14;1.30;99.90
23289;DHT22;11813;50.834;4.280;2024-01-16T01:27:39;1.30;99.90
23289;DHT22;11813;50.834;4.280;2024-01-16T01:30:08;1.20;99.90
23289;DHT22;11813;50.834;4.280;2024-01-16T01:32:37;1.30;99.90
23289;DHT22;11813;50.834;4.280;2024-01-16T01:35:04;1.30;99.90
23289;DHT22;11813;50.834;4.280;2024-01-16T01:37:30;1.30;99.90
23289;DHT22;11813;50.834;4.280;2024-01-16T01:39:55;1.30;99.90
23289;DHT22;11813;50.834;4.280;2024-01-16T01:42:21;1.40;99.90
23289;DHT22;11813;50.834;4.280;2024-01-16T01:44:47;1.30;99.90
23289;DHT22;11813;50.834;4.280;2024-01-16T01:47:13;1.30;99.90
23289;DHT22;11813;50.834;4.280;2024-01-16T01:49:39;1.30;99.90
23289;DHT22;11813;50.834;4.280;2024-01-16T01:52:05;1.30;99.90
23289;DHT22;11813;50.834;4.280;2024-01-16T01:54:32;1.40;99.90
23289;DHT22;11813;50.834;4.280;2024-01-16T01:57:01;1.50;99.90
23289;DHT22;11813;50.834;4.280;2024-01-16T01:59:27;1.50;99.90
23289;DHT22;11813;50.834;4.280;2024-01-16T02:01:55;1.50;99.90
23289;DHT22;11813;50.834;4.280;2024-01-16T02:04:21;1.50;99.90
23289;DHT22;11813;50.834;4.280;2024-01-16T02:06:48;1.50;99.90
23289;DHT22;11813;50.834;4.280;2024-01-16T02:09:14;1.50;99.90
23289;DHT22;11813;50.834;4.280;2024-01-16T02:11:40;1.50;99.90
23289;DHT22;11813;50.834;4.280;2024-01-16T02:14:07;1.60;99.90
23289;DHT22;11813;50.834;4.280;2024-01-16T02:16:37;1.60;99.90
23289;DHT22;11813;50.834;4.280;2024-01-16T02:19:04;1.50;99.90
23289;DHT22;11813;50.834;4.280;2024-01-16T02:21:36;1.60;99.90
23289;DHT22;11813;50.834;4.280;2024-01-16T02:24:02;1.70;99.90
23289;DHT22;11813;50.834;4.280;2024-01-16T02:26:28;1.70;99.90
23289;DHT22;11813;50.834;4.280;2024-01-16T02:28:55;1.70;99.90
23289;DHT22;11813;50.834;4.280;2024-01-16T02:31:21;1.80;99.90
23289;DHT22;11813;50.834;4.280;2024-01-16T02:33:47;1.80;99.90
23289;DHT22;11813;50.834;4.280;2024-01-16T02:36:13;1.90;99.90
23289;DHT22;11813;50.834;4.280;2024-01-16T02:38:39;1.90;99.90
23289;DHT22;11813;50.834;4.280;2024-01-16T02:41:07;1.80;99.90
23289;DHT22;11813;50.834;4.280;2024-01-16T02:43:33;1.80;99.90
23289;DHT22;11813;50.834;4.280;2024-01-16T02:45:58;1.60;99.90
23289;DHT22;11813;50.834;4.280;2024-01-16T02:48:24;1.60;99.90
23289;DHT22;11813;50.834;4.280;2024-01-16T02:50:50;1.50;99.90
23289;DHT22;11813;50.834;4.280;2024-01-16T02:53:15;1.50;99.90
23289;DHT22;11813;50.834;4.280;2024-01-16T02:55:41;1.50;99.90
23289;DHT22;11813;50.834;4.280;2024-01-16T02:58:06;1.50;99.90
23289;DHT22;11813;50.834;4.280;2024-01-16T03:00:32;1.40;99.90
23289;DHT22;11813;50.834;4.280;2024-01-16T03:02:58;1.20;99.90
23289;DHT22;11813;50.834;4.280;2024-01-16T03:05:24;1.10;99.90
23289;DHT22;11813;50.834;4.280;2024-01-16T03:07:49;1.10;99.90
23289;DHT22;11813;50.834;4.280;2024-01-16T03:10:15;1.20;99.90
23289;DHT22;11813;50.834;4.280;2024-01-16T03:12:41;1.20;99.90
23289;DHT22;11813;50.834;4.280;2024-01-16T03:15:06;1.20;99.90
23289;DHT22;11813;50.834;4.280;2024-01-16T03:17:32;1.10;99.90
23289;DHT22;11813;50.834;4.280;2024-01-16T03:19:58;1.20;99.90
23289;DHT22;11813;50.834;4.280;2024-01-16T03:22:23;1.20;99.90
23289;DHT22;11813;50.834;4.280;2024-01-16T03:24:49;1.30;99.90
23289;DHT22;11813;50.834;4.280;2024-01-16T03:27:16;1.30;99.90
23289;DHT22;11813;50.834;4.280;2024-01-16T03:29:41;1.30;99.90
23289;DHT22;11813;50.834;4.280;2024-01-16T03:32:07;1.30;99.90
23289;DHT22;11813;50.834;4.280;2024-01-16T03:34:33;1.20;99.90
23289;DHT22;11813;50.834;4.280;2024-01-16T03:36:59;1.20;99.90
23289;DHT22;11813;50.834;4.280;2024-01-16T03:39:24;1.10;99.90
23289;DHT22;11813;50.834;4.280;2024-01-16T03:41:50;1.10;99.90
23289;DHT22;11813;50.834;4.280;2024-01-16T03:44:15;1.10;99.90
23289;DHT22;11813;50.834;4.280;2024-01-16T03:46:41;1.10;99.90
23289;DHT22;11813;50.834;4.280;2024-01-16T03:49:06;1.20;99.90
23289;DHT22;11813;50.834;4.280;2024-01-16T03:51:32;1.10;99.90
23289;DHT22;11813;50.834;4.280;2024-01-16T03:53:58;1.10;99.90
23289;DHT22;11813;50.834;4.280;2024-01-16T03:56:24;1.10;99.90
23289;DHT22;11813;50.834;4.280;2024-01-16T03:58:49;1.10;99.90
23289;DHT22;11813;50.834;4.280;2024-01-16T04:01:15;1.00;99.90
23289;DHT22;11813;50.834;4.280;2024-01-16T04:03:40;1.00;99.90
23289;DHT22;11813;50.834;4.280;2024-01-16T04:06:18;1.00;99.90
23289;DHT22;11813;50.834;4.280;2024-01-16T04:08:45;1.00;99.90
23289;DHT22;11813;50.834;4.280;2024-01-16T04:11:14;1.00;99.90
23289;DHT22;11813;50.834;4.280;2024-01-16T04:13:40;1.00;99.90
23289;DHT22;11813;50.834;4.280;2024-01-16T04:16:06;1.10;99.90
23289;DHT22;11813;50.834;4.280;2024-01-16T04:18:39;1.10;99.90
23289;DHT22;11813;50.834;4.280;2024-01-16T04:21:06;1.10;99.90
23289;DHT22;11813;50.834;4.280;2024-01-16T04:23:32;1.00;99.90
23289;DHT22;11813;50.834;4.280;2024-01-16T04:25:58;1.00;99.90
23289;DHT22;11813;50.834;4.280;2024-01-16T04:28:24;0.90;99.90
23289;DHT22;11813;50.834;4.280;2024-01-16T04:30:50;0.80;99.90
23289;DHT22;11813;50.834;4.280;2024-01-16T04:33:16;0.80;99.90
23289;DHT22;11813;50.834;4.280;2024-01-16T04:35:41;0.80;99.90
23289;DHT22;11813;50.834;4.280;2024-01-16T04:38:07;0.90;99.90
23289;DHT22;11813;50.834;4.280;2024-01-16T04:40:33;0.90;99.90
23289;DHT22;11813;50.834;4.280;2024-01-16T04:42:59;0.90;99.90
23289;DHT22;11813;50.834;4.280;2024-01-16T04:45:25;0.90;99.90
23289;DHT22;11813;50.834;4.280;2024-01-16T04:47:50;0.70;99.90
23289;DHT22;11813;50.834;4.280;2024-01-16T04:50:16;0.70;99.90
23289;DHT22;11813;50.834;4.280;2024-01-16T04:52:42;0.80;99.90
23289;DHT22;11813;50.834;4.280;2024-01-16T04:55:08;0.80;99.90
23289;DHT22;11813;50.834;4.280;2024-01-16T04:57:34;0.80;99.90
23289;DHT22;11813;50.834;4.280;2024-01-16T05:00:00;0.90;99.90
23289;DHT22;11813;50.834;4.280;2024-01-16T05:02:25;0.90;99.90
23289;DHT22;11813;50.834;4.280;2024-01-16T05:04:51;0.80;99.90
23289;DHT22;11813;50.834;4.280;2024-01-16T05:07:18;0.80;99.90
23289;DHT22;11813;50.834;4.280;2024-01-16T05:09:46;0.80;99.90
23289;DHT22;11813;50.834;4.280;2024-01-16T05:12:12;0.90;99.90
23289;DHT22;11813;50.834;4.280;2024-01-16T05:14:38;0.90;99.90
23289;DHT22;11813;50.834;4.280;2024-01-16T05:17:03;0.80;99.90
23289;DHT22;11813;50.834;4.280;2024-01-16T05:19:29;0.80;99.90
23289;DHT22;11813;50.834;4.280;2024-01-16T05:21:54;0.70;99.90
23289;DHT22;11813;50.834;4.280;2024-01-16T05:24:20;0.60;99.90
23289;DHT22;11813;50.834;4.280;2024-01-16T05:26:45;0.70;99.90
23289;DHT22;11813;50.834;4.280;2024-01-16T05:29:11;0.60;99.90
23289;DHT22;11813;50.834;4.280;2024-01-16T05:31:43;0.70;99.90
23289;DHT22;11813;50.834;4.280;2024-01-16T05:34:12;0.60;99.90
23289;DHT22;11813;50.834;4.280;2024-01-16T05:36:37;0.60;99.90
23289;DHT22;11813;50.834;4.280;2024-01-16T05:39:03;0.50;99.90
23289;DHT22;11813;50.834;4.280;2024-01-16T05:41:35;0.50;99.90
23289;DHT22;11813;50.834;4.280;2024-01-16T05:44:00;0.50;99.90
23289;DHT22;11813;50.834;4.280;2024-01-16T05:46:29;0.50;99.90
23289;DHT22;11813;50.834;4.280;2024-01-16T05:48:55;0.60;99.90
23289;DHT22;11813;50.834;4.280;2024-01-16T05:51:21;0.50;99.90
23289;DHT22;11813;50.834;4.280;2024-01-16T05:53:46;0.50;99.90
23289;DHT22;11813;50.834;4.280;2024-01-16T05:56:12;0.50;99.90
23289;DHT22;11813;50.834;4.280;2024-01-16T05:58:38;0.40;99.90
23289;DHT22;11813;50.834;4.280;2024-01-16T06:01:05;0.50;99.90
23289;DHT22;11813;50.834;4.280;2024-01-16T06:03:31;0.50;99.90
23289;DHT22;11813;50.834;4.280;2024-01-16T06:05:57;0.50;99.90
23289;DHT22;11813;50.834;4.280;2024-01-16T06:08:24;0.50;99.90
23289;DHT22;11813;50.834;4.280;2024-01-16T06:10:50;0.40;99.90
23289;DHT22;11813;50.834;4.280;2024-01-16T06:13:18;0.30;99.90
23289;DHT22;11813;50.834;4.280;2024-01-16T06:15:44;0.40;99.90
23289;DHT22;11813;50.834;4.280;2024-01-16T06:18:09;0.40;99.90
23289;DHT22;11813;50.834;4.280;2024-01-16T06:20:35;0.40;99.90
23289;DHT22;11813;50.834;4.280;2024-01-16T06:23:01;0.40;99.90
23289;DHT22;11813;50.834;4.280;2024-01-16T06:25:27;0.40;99.90
23289;DHT22;11813;50.834;4.280;2024-01-16T06:27:52;0.50;99.90
23289;DHT22;11813;50.834;4.280;2024-01-16T06:30:18;0.30;99.90
23289;DHT22;11813;50.834;4.280;2024-01-16T06:32:43;0.30;99.90
23289;DHT22;11813;50.834;4.280;2024-01-16T06:35:09;0.40;99.90
23289;DHT22;11813;50.834;4.280;2024-01-16T06:37:34;0.40;99.90
23289;DHT22;11813;50.834;4.280;2024-01-16T06:40:01;0.50;99.90
23289;DHT22;11813;50.834;4.280;2024-01-16T06:42:28;0.40;99.90
23289;DHT22;11813;50.834;4.280;2024-01-16T06:44:53;0.40;99.90
23289;DHT22;11813;50.834;4.280;2024-01-16T06:47:19;0.40;99.90
23289;DHT22;11813;50.834;4.280;2024-01-16T06:49:44;0.40;99.90
23289;DHT22;11813;50.834;4.280;2024-01-16T06:52:10;0.30;99.90
23289;DHT22;11813;50.834;4.280;2024-01-16T06:54:35;0.40;99.90
23289;DHT22;11813;50.834;4.280;2024-01-16T06:57:01;0.40;99.90
23289;DHT22;11813;50.834;4.280;2024-01-16T06:59:26;0.50;99.90
23289;DHT22;11813;50.834;4.280;2024-01-16T07:01:52;0.30;99.90
23289;DHT22;11813;50.834;4.280;2024-01-16T07:04:19;0.30;99.90
23289;DHT22;11813;50.834;4.280;2024-01-16T07:06:45;0.40;99.90
23289;DHT22;11813;50.834;4.280;2024-01-16T07:09:11;0.30;99.90
23289;DHT22;11813;50.834;4.280;2024-01-16T07:11:37;0.20;99.90
23289;DHT22;11813;50.834;4.280;2024-01-16T07:14:04;0.20;99.90
23289;DHT22;11813;50.834;4.280;2024-01-16T07:16:29;0.10;99.90
23289;DHT22;11813;50.834;4.280;2024-01-16T07:18:55;0.20;99.90
23289;DHT22;11813;50.834;4.280;2024-01-16T07:21:21;0.20;99.90
23289;DHT22;11813;50.834;4.280;2024-01-16T07:23:47;0.30;99.90
23289;DHT22;11813;50.834;4.280;2024-01-16T07:26:12;0.40;99.90
23289;DHT22;11813;50.834;4.280;2024-01-16T07:28:38;0.50;99.90
23289;DHT22;11813;50.834;4.280;2024-01-16T07:31:04;0.60;99.90
23289;DHT22;11813;50.834;4.280;2024-01-16T07:33:30;0.50;99.90
23289;DHT22;11813;50.834;4.280;2024-01-16T07:35:56;0.60;99.90
23289;DHT22;11813;50.834;4.280;2024-01-16T07:38:21;0.60;99.90
23289;DHT22;11813;50.834;4.280;2024-01-16T07:40:47;0.50;99.90
23289;DHT22;11813;50.834;4.280;2024-01-16T07:43:13;0.50;99.90
23289;DHT22;11813;50.834;4.280;2024-01-16T07:45:39;0.50;99.90
23289;DHT22;11813;50.834;4.280;2024-01-16T07:48:04;0.50;99.90
23289;DHT22;11813;50.834;4.280;2024-01-16T07:50:30;0.50;99.90
23289;DHT22;11813;50.834;4.280;2024-01-16T07:52:55;0.40;99.90
23289;DHT22;11813;50.834;4.280;2024-01-16T07:55:21;0.30;99.90
23289;DHT22;11813;50.834;4.280;2024-01-16T07:57:47;0.20;99.90
23289;DHT22;11813;50.834;4.280;2024-01-16T08:00:12;0.30;99.90
23289;DHT22;11813;50.834;4.280;2024-01-16T08:02:38;0.30;99.90
23289;DHT22;11813;50.834;4.280;2024-01-16T08:05:05;0.20;99.90
23289;DHT22;11813;50.834;4.280;2024-01-16T08:07:31;0.20;99.90
23289;DHT22;11813;50.834;4.280;2024-01-16T08:09:57;0.20;99.90
23289;DHT22;11813;50.834;4.280;2024-01-16T08:12:22;0.30;99.90
23289;DHT22;11813;50.834;4.280;2024-01-16T08:14:48;0.30;99.90
23289;DHT22;11813;50.834;4.280;2024-01-16T08:17:14;0.40;99.90
23289;DHT22;11813;50.834;4.280;2024-01-16T08:19:40;0.50;99.90
23289;DHT22;11813;50.834;4.280;2024-01-16T08:22:06;0.50;99.90
23289;DHT22;11813;50.834;4.280;2024-01-16T08:24:32;0.60;99.90
23289;DHT22;11813;50.834;4.280;2024-01-16T08:26:57;0.70;99.90
23289;DHT22;11813;50.834;4.280;2024-01-16T08:29:24;0.70;99.90
23289;DHT22;11813;50.834;4.280;2024-01-16T08:31:50;0.60;99.90
23289;DHT22;11813;50.834;4.280;2024-01-16T08:34:16;0.60;99.90
23289;DHT22;11813;50.834;4.280;2024-01-16T08:36:42;0.60;99.90
23289;DHT22;11813;50.834;4.280;2024-01-16T08:39:08;0.60;99.90
23289;DHT22;11813;50.834;4.280;2024-01-16T08:41:33;0.60;99.90
23289;DHT22;11813;50.834;4.280;2024-01-16T08:43:59;0.70;99.90
23289;DHT22;11813;50.834;4.280;2024-01-16T08:46:24;0.80;99.90
23289;DHT22;11813;50.834;4.280;2024-01-16T08:48:50;0.80;99.90
23289;DHT22;11813;50.834;4.280;2024-01-16T08:51:15;0.90;99.90
23289;DHT22;11813;50.834;4.280;2024-01-16T08:53:41;0.90;99.90
23289;DHT22;11813;50.834;4.280;2024-01-16T08:56:07;0.90;99.90
23289;DHT22;11813;50.834;4.280;2024-01-16T08:58:34;1.00;99.90
23289;DHT22;11813;50.834;4.280;2024-01-16T09:01:06;1.10;99.90
23289;DHT22;11813;50.834;4.280;2024-01-16T09:03:32;1.20;99.90
23289;DHT22;11813;50.834;4.280;2024-01-16T09:05:58;1.20;99.90
23289;DHT22;11813;50.834;4.280;2024-01-16T09:08:25;1.20;99.90
23289;DHT22;11813;50.834;4.280;2024-01-16T09:10:52;1.20;99.90
23289;DHT22;11813;50.834;4.280;2024-01-16T09:13:17;1.20;99.90
23289;DHT22;11813;50.834;4.280;2024-01-16T09:15:43;1.20;99.90
23289;DHT22;11813;50.834;4.280;2024-01-16T09:18:09;1.30;99.90
23289;DHT22;11813;50.834;4.280;2024-01-16T09:20:34;1.40;99.90
23289;DHT22;11813;50.834;4.280;2024-01-16T09:23:00;1.40;99.90
23289;DHT22;11813;50.834;4.280;2024-01-16T09:25:26;1.40;99.90
23289;DHT22;11813;50.834;4.280;2024-01-16T09:27:53;1.60;99.90
23289;DHT22;11813;50.834;4.280;2024-01-16T09:30:18;1.60;99.90
23289;DHT22;11813;50.834;4.280;2024-01-16T09:32:44;1.70;99.90
23289;DHT22;11813;50.834;4.280;2024-01-16T09:35:10;1.70;99.90
23289;DHT22;11813;50.834;4.280;2024-01-16T09:37:36;1.80;99.90
23289;DHT22;11813;50.834;4.280;2024-01-16T09:40:02;1.80;99.90
23289;DHT22;11813;50.834;4.280;2024-01-16T09:42:30;1.70;99.90
23289;DHT22;11813;50.834;4.280;2024-01-16T09:44:56;1.70;99.90
23289;DHT22;11813;50.834;4.280;2024-01-16T09:47:24;1.60;99.90
23289;DHT22;11813;50.834;4.280;2024-01-16T09:49:50;1.60;99.90
23289;DHT22;11813;50.834;4.280;2024-01-16T09:52:17;1.60;99.90
23289;DHT22;11813;50.834;4.280;2024-01-16T09:54:43;1.60;99.90
23289;DHT22;11813;50.834;4.280;2024-01-16T09:57:10;1.60;99.90
23289;DHT22;11813;50.834;4.280;2024-01-16T09:59:39;1.70;99.90
23289;DHT22;11813;50.834;4.280;2024-01-16T10:02:09;1.80;99.90
23289;DHT22;11813;50.834;4.280;2024-01-16T10:04:36;2.00;99.90
23289;DHT22;11813;50.834;4.280;2024-01-16T10:07:02;2.30;99.90
23289;DHT22;11813;50.834;4.280;2024-01-16T10:09:29;2.40;99.90
23289;DHT22;11813;50.834;4.280;2024-01-16T10:11:55;2.60;99.90
23289;DHT22;11813;50.834;4.280;2024-01-16T10:14:21;2.70;99.90
23289;DHT22;11813;50.834;4.280;2024-01-16T10:17:03;2.60;99.90
23289;DHT22;11813;50.834;4.280;2024-01-16T10:19:34;2.70;99.90
23289;DHT22;11813;50.834;4.280;2024-01-16T10:22:06;2.70;99.90
23289;DHT22;11813;50.834;4.280;2024-01-16T10:24:32;2.70;99.90
23289;DHT22;11813;50.834;4.280;2024-01-16T10:27:01;2.70;99.90
23289;DHT22;11813;50.834;4.280;2024-01-16T10:29:29;2.60;99.90
23289;DHT22;11813;50.834;4.280;2024-01-16T10:32:00;2.50;99.90
23289;DHT22;11813;50.834;4.280;2024-01-16T10:34:26;2.40;99.90
23289;DHT22;11813;50.834;4.280;2024-01-16T10:36:58;2.40;99.90
23289;DHT22;11813;50.834;4.280;2024-01-16T10:39:25;2.30;99.90
23289;DHT22;11813;50.834;4.280;2024-01-16T10:41:57;2.40;99.90
23289;DHT22;11813;50.834;4.280;2024-01-16T10:44:24;2.50;99.90
23289;DHT22;11813;50.834;4.280;2024-01-16T10:46:50;2.60;99.90
23289;DHT22;11813;50.834;4.280;2024-01-16T10:49:15;2.70;99.90
23289;DHT22;11813;50.834;4.280;2024-01-16T10:51:46;2.80;99.90
23289;DHT22;11813;50.834;4.280;2024-01-16T10:54:13;3.10;99.90
23289;DHT22;11813;50.834;4.280;2024-01-16T10:56:44;3.20;99.90
23289;DHT22;11813;50.834;4.280;2024-01-16T10:59:34;3.30;99.90
23289;DHT22;11813;50.834;4.280;2024-01-16T11:02:05;3.50;99.90
23289;DHT22;11813;50.834;4.280;2024-01-16T11:04:36;3.40;99.90
23289;DHT22;11813;50.834;4.280;2024-01-16T11:07:03;3.50;99.90
23289;DHT22;11813;50.834;4.280;2024-01-16T11:09:31;3.50;99.90
23289;DHT22;11813;50.834;4.280;2024-01-16T11:11:57;3.60;99.90
23289;DHT22;11813;50.834;4.280;2024-01-16T11:14:25;3.70;99.90
23289;DHT22;11813;50.834;4.280;2024-01-16T11:16:51;3.80;99.90
23289;DHT22;11813;50.834;4.280;2024-01-16T11:19:19;3.90;99.90
23289;DHT22;11813;50.834;4.280;2024-01-16T11:21:45;4.00;99.90
23289;DHT22;11813;50.834;4.280;2024-01-16T11:24:12;4.10;99.90
23289;DHT22;11813;50.834;4.280;2024-01-16T11:26:41;4.20;99.90
23289;DHT22;11813;50.834;4.280;2024-01-16T11:31:55;4.20;99.90
23289;DHT22;11813;50.834;4.280;2024-01-16T11:37:09;4.60;99.90
23289;DHT22;11813;50.834;4.280;2024-01-16T11:39:35;4.70;99.90
23289;DHT22;11813;50.834;4.280;2024-01-16T11:42:01;5.00;99.90
23289;DHT22;11813;50.834;4.280;2024-01-16T11:44:48;5.20;99.90
23289;DHT22;11813;50.834;4.280;2024-01-16T11:47:23;5.10;99.90
23289;DHT22;11813;50.834;4.280;2024-01-16T11:50:08;5.40;99.90
23289;DHT22;11813;50.834;4.280;2024-01-16T11:52:44;5.80;99.90
23289;DHT22;11813;50.834;4.280;2024-01-16T11:55:29;5.90;99.90
23289;DHT22;11813;50.834;4.280;2024-01-16T12:00:57;5.70;99.90
23289;DHT22;11813;50.834;4.280;2024-01-16T12:03:23;5.60;99.90
23289;DHT22;11813;50.834;4.280;2024-01-16T12:05:59;5.60;99.90
23289;DHT22;11813;50.834;4.280;2024-01-16T12:08:25;5.60;99.90
23289;DHT22;11813;50.834;4.280;2024-01-16T12:10:51;5.60;99.90
23289;DHT22;11813;50.834;4.280;2024-01-16T12:13:17;5.50;99.90
23289;DHT22;11813;50.834;4.280;2024-01-16T12:15:43;5.50;99.90
23289;DHT22;11813;50.834;4.280;2024-01-16T12:18:09;5.50;99.90
23289;DHT22;11813;50.834;4.280;2024-01-16T12:20:38;5.40;99.90
23289;DHT22;11813;50.834;4.280;2024-01-16T12:23:05;5.70;99.90
23289;DHT22;11813;50.834;4.280;2024-01-16T12:25:33;5.80;99.90
23289;DHT22;11813;50.834;4.280;2024-01-16T12:28:00;5.70;99.90
23289;DHT22;11813;50.834;4.280;2024-01-16T12:30:35;5.70;99.90
23289;DHT22;11813;50.834;4.280;2024-01-16T12:33:12;5.50;99.90
23289;DHT22;11813;50.834;4.280;2024-01-16T12:35:42;5.80;99.90
23289;DHT22;11813;50.834;4.280;2024-01-16T12:38:09;6.00;99.90
23289;DHT22;11813;50.834;4.280;2024-01-16T12:40:44;6.10;99.90
23289;DHT22;11813;50.834;4.280;2024-01-16T12:43:11;6.00;99.90
23289;DHT22;11813;50.834;4.280;2024-01-16T12:45:37;6.20;99.90
23289;DHT22;11813;50.834;4.280;2024-01-16T12:48:03;6.50;99.90
23289;DHT22;11813;50.834;4.280;2024-01-16T12:50:30;6.60;99.90
23289;DHT22;11813;50.834;4.280;2024-01-16T12:53:06;7.10;99.90
23289;DHT22;11813;50.834;4.280;2024-01-16T12:55:34;7.00;99.90
23289;DHT22;11813;50.834;4.280;2024-01-16T12:58:22;7.30;99.90
23289;DHT22;11813;50.834;4.280;2024-01-16T13:00:54;7.50;99.90
23289;DHT22;11813;50.834;4.280;2024-01-16T13:03:23;7.80;99.90
23289;DHT22;11813;50.834;4.280;2024-01-16T13:05:59;7.90;99.90
23289;DHT22;11813;50.834;4.280;2024-01-16T13:08:25;7.50;99.90
23289;DHT22;11813;50.834;4.280;2024-01-16T13:11:08;7.50;99.90
23289;DHT22;11813;50.834;4.280;2024-01-16T13:13:35;7.10;99.90
23289;DHT22;11813;50.834;4.280;2024-01-16T13:16:03;7.00;99.90
23289;DHT22;11813;50.834;4.280;2024-01-16T13:18:31;7.00;99.90
23289;DHT22;11813;50.834;4.280;2024-01-16T13:20:58;7.20;99.90
23289;DHT22;11813;50.834;4.280;2024-01-16T13:23:25;7.20;99.90
23289;DHT22;11813;50.834;4.280;2024-01-16T13:25:51;7.30;99.90
23289;DHT22;11813;50.834;4.280;2024-01-16T13:28:19;7.10;99.90
23289;DHT22;11813;50.834;4.280;2024-01-16T13:30:46;7.30;99.90
23289;DHT22;11813;50.834;4.280;2024-01-16T13:33:12;7.80;99.90
23289;DHT22;11813;50.834;4.280;2024-01-16T13:35:40;8.00;99.90
23289;DHT22;11813;50.834;4.280;2024-01-16T13:38:07;8.30;99.90
23289;DHT22;11813;50.834;4.280;2024-01-16T13:40:34;8.50;99.90
23289;DHT22;11813;50.834;4.280;2024-01-16T13:43:00;8.40;99.90
23289;DHT22;11813;50.834;4.280;2024-01-16T13:45:26;8.40;99.90
23289;DHT22;11813;50.834;4.280;2024-01-16T13:47:52;8.60;99.90
23289;DHT22;11813;50.834;4.280;2024-01-16T13:50:17;8.90;99.90
23289;DHT22;11813;50.834;4.280;2024-01-16T13:52:43;8.70;99.90
23289;DHT22;11813;50.834;4.280;2024-01-16T13:55:10;8.30;99.90
23289;DHT22;11813;50.834;4.280;2024-01-16T13:57:36;8.20;99.90
23289;DHT22;11813;50.834;4.280;2024-01-16T14:00:07;7.80;99.90
23289;DHT22;11813;50.834;4.280;2024-01-16T14:02:33;7.80;99.90
23289;DHT22;11813;50.834;4.280;2024-01-16T14:05:03;7.90;99.90
23289;DHT22;11813;50.834;4.280;2024-01-16T14:07:31;8.30;99.90
23289;DHT22;11813;50.834;4.280;2024-01-16T14:09:56;8.60;99.90
23289;DHT22;11813;50.834;4.280;2024-01-16T14:12:23;8.60;99.90
23289;DHT22;11813;50.834;4.280;2024-01-16T14:14:50;8.30;99.90
23289;DHT22;11813;50.834;4.280;2024-01-16T14:17:16;8.00;99.90
23289;DHT22;11813;50.834;4.280;2024-01-16T14:19:42;7.50;99.90
23289;DHT22;11813;50.834;4.280;2024-01-16T14:22:08;7.10;99.90
23289;DHT22;11813;50.834;4.280;2024-01-16T14:24:33;6.90;99.90
23289;DHT22;11813;50.834;4.280;2024-01-16T14:26:59;6.50;99.90
23289;DHT22;11813;50.834;4.280;2024-01-16T14:29:25;6.40;99.90
23289;DHT22;11813;50.834;4.280;2024-01-16T14:31:52;6.00;99.90
23289;DHT22;11813;50.834;4.280;2024-01-16T14:34:17;6.00;99.90
23289;DHT22;11813;50.834;4.280;2024-01-16T14:36:45;6.10;99.90
23289;DHT22;11813;50.834;4.280;2024-01-16T14:39:10;5.80;99.90
23289;DHT22;11813;50.834;4.280;2024-01-16T14:41:39;5.80;99.90
23289;DHT22;11813;50.834;4.280;2024-01-16T14:44:07;5.70;99.90
23289;DHT22;11813;50.834;4.280;2024-01-16T14:46:33;5.70;99.90
23289;DHT22;11813;50.834;4.280;2024-01-16T14:48:58;5.70;99.90
23289;DHT22;11813;50.834;4.280;2024-01-16T14:51:24;5.70;99.90
23289;DHT22;11813;50.834;4.280;2024-01-16T14:53:50;5.50;99.90
23289;DHT22;11813;50.834;4.280;2024-01-16T14:56:16;5.30;99.90
23289;DHT22;11813;50.834;4.280;2024-01-16T14:58:42;5.20;99.90
23289;DHT22;11813;50.834;4.280;2024-01-16T15:01:09;5.10;99.90
23289;DHT22;11813;50.834;4.280;2024-01-16T15:03:36;5.20;99.90
23289;DHT22;11813;50.834;4.280;2024-01-16T15:06:02;5.20;99.90
23289;DHT22;11813;50.834;4.280;2024-01-16T15:08:28;5.30;99.90
23289;DHT22;11813;50.834;4.280;2024-01-16T15:10:56;5.40;99.90
23289;DHT22;11813;50.834;4.280;2024-01-16T15:13:25;5.30;99.90
23289;DHT22;11813;50.834;4.280;2024-01-16T15:15:51;5.40;99.90
23289;DHT22;11813;50.834;4.280;2024-01-16T15:18:19;5.30;99.90
23289;DHT22;11813;50.834;4.280;2024-01-16T15:20:45;5.20;99.90
23289;DHT22;11813;50.834;4.280;2024-01-16T15:23:11;5.10;99.90
23289;DHT22;11813;50.834;4.280;2024-01-16T15:25:37;4.90;99.90
23289;DHT22;11813;50.834;4.280;2024-01-16T15:28:03;4.90;99.90
23289;DHT22;11813;50.834;4.280;2024-01-16T15:30:28;4.90;99.90
23289;DHT22;11813;50.834;4.280;2024-01-16T15:33:01;5.00;99.90
23289;DHT22;11813;50.834;4.280;2024-01-16T15:35:27;5.00;99.90
23289;DHT22;11813;50.834;4.280;2024-01-16T15:37:52;5.00;99.90
23289;DHT22;11813;50.834;4.280;2024-01-16T15:40:18;5.00;99.90
23289;DHT22;11813;50.834;4.280;2024-01-16T15:42:44;4.80;99.90
23289;DHT22;11813;50.834;4.280;2024-01-16T15:45:10;4.60;99.90
23289;DHT22;11813;50.834;4.280;2024-01-16T15:47:36;4.50;99.90
23289;DHT22;11813;50.834;4.280;2024-01-16T15:50:02;4.30;99.90
23289;DHT22;11813;50.834;4.280;2024-01-16T15:52:30;4.50;99.90